• Join FlightAware (Why Join?)
  • Login
  • US Flag 
01:29PM EDT


 

Airport Tracker/Info


-or-


 

Live Flight TrackerFlight Track Log ✈ GJS3657 ✈ 02-Oct-2013 ✈ KDEN - KMSP

Flight Track Log - Related Links

Times and Time Zones

All times are in EDT time to prevent confusion due to time zone crossing. See the GJS3657 flight status page for this flight to view local times or setup timezone preferences in your user account.

Time Position Orientation Groundspeed Altitude Reporting Facility
EDT Latitude Longitude Course Direction KTS MPH feet Rate Location/Type
12:53PM 39.8833 -104.5667 75° East 202 232 7,200  Level Denver TRACON
12:54PM 39.9000 -104.4833 75° East 249 287 8,900 1,980 Climbing Denver TRACON
12:55PM 39.9167 -104.3833 78° East 285 328 11,400 2,280 Climbing Denver TRACON
12:56PM 39.9344 -104.3267 68° East 283 326 12,600 1,740 Climbing Denver Center
12:57PM 39.9550 -104.2133 77° East 320 368 14,100 1,560 Climbing Denver Center
12:58PM 39.9750 -104.0781 79° East 351 404 16,200 1,920 Climbing Denver Center
12:59PM 39.9997 -103.9164 79° East 370 426 18,600 2,160 Climbing Denver Center
01:00PM 40.0186 -103.7806 80° East 379 436 20,700 1,920 Climbing Denver Center
01:01PM 40.0431 -103.6339 78° East 382 440 22,600 1,740 Climbing Denver Center
01:02PM 40.0664 -103.4931 78° East 397 457 24,400 1,500 Climbing Denver Center
01:03PM 40.0894 -103.3500 78° East 402 463 25,800 1,320 Climbing Denver Center
01:04PM 40.1133 -103.2017 78° East 417 480 27,200 1,380 Climbing Denver Center
01:05PM 40.1378 -103.0503 78° East 424 488 28,700 1,380 Climbing Denver Center
01:06PM 40.1622 -102.8997 78° East 425 489 30,100 1,080 Climbing Denver Center
01:07PM 40.1900 -102.7161 79° East 430 495 31,000 900 Climbing Denver Center
01:08PM 40.2153 -102.5489 79° East 442 509 32,000 900 Climbing Denver Center
01:09PM 40.2392 -102.3969 78° East 446 513 32,900 900 Climbing Denver Center
01:10PM 40.2611 -102.2442 79° East 448 516 33,900 960 Climbing Denver Center
01:11PM 40.2886 -102.0678 78° East 445 512 35,000 960 Climbing Denver Center
01:12PM 40.3106 -101.9169 79° East 443 510 36,000 840 Climbing Denver Center
01:13PM 40.3372 -101.7406 79° East 443 510 36,800 600 Climbing Denver Center
01:14PM 40.3592 -101.5881 79° East 446 513 37,300 480 Climbing Denver Center
01:15PM 40.3858 -101.4086 79° East 451 519 37,900 480 Climbing Denver Center
01:17PM 40.4181 -101.2561 74° East 453 521 38,300 480 Climbing Denver Center
01:18PM 40.4544 -101.0786 75° East 454 522 38,900 300 Climbing Denver Center
01:19PM 40.4850 -100.9269 75° East 452 520 39,000  Climbing Denver Center
01:20PM 40.5225 -100.7456 75° East 463 533 39,000  Level Denver Center
01:21PM 40.5536 -100.5853 76° East 476 548 39,000  Level Denver Center
01:22PM 40.5922 -100.3969 75° East 482 555 39,000  Level Denver Center
01:23PM 40.6247 -100.2339 75° East 484 557 39,000  Level Denver Center
01:24PM 40.6575 -100.0686 75° East 488 562 39,000  Level Denver Center
01:25PM 40.6950 -99.8747 76° East 490 564 39,000  Level Denver Center
01:26PM 40.7297 -99.6933 76° East 493 567 39,000  Level Denver Center
01:27PM 40.7564 -99.5542 76° East 492 566 39,000  Level Denver Center
01:28PM 40.7947 -99.3469 76° East 488 562 39,000  Level Denver Center
01:29PM 40.8336 -99.1411 76° East 485 558 39,000  Level Denver Center
01:30PM 40.8625 -98.9842 76° East 484 557 39,000  Level Minneapolis Center
01:31PM 40.9000 -98.7761 77° East 484 557 39,000  Level Minneapolis Center
01:32PM 40.9322 -98.6039 76° East 484 557 39,000  Level Minneapolis Center
01:33PM 40.9636 -98.4261 77° East 481 554 39,000  Level Minneapolis Center
01:34PM 41.0069 -98.2614 71° East 478 550 39,000  Level Minneapolis Center
01:35PM 41.0739 -98.1078 60° Northeast 483 556 39,000  Level Minneapolis Center
01:36PM 41.1406 -97.9536 60° Northeast 483 556 39,000  Level Minneapolis Center
01:37PM 41.2194 -97.7675 61° Northeast 483 556 39,000  Level Minneapolis Center
01:38PM 41.2853 -97.6111 61° Northeast 484 557 39,000  Level Minneapolis Center
01:39PM 41.3503 -97.4575 61° Northeast 482 555 39,000  Level Minneapolis Center
01:40PM 41.4147 -97.3044 61° Northeast 479 551 39,000  Level Minneapolis Center
01:41PM 41.4803 -97.1503 60° Northeast 477 549 39,000  Level Minneapolis Center
01:42PM 41.5447 -96.9931 61° Northeast 479 551 39,000  Level Minneapolis Center
01:43PM 41.6103 -96.8369 61° Northeast 480 552 39,000  Level Minneapolis Center
01:44PM 41.6886 -96.6467 61° Northeast 483 556 39,000  Level Minneapolis Center
01:45PM 41.7525 -96.4886 62° Northeast 481 554 39,000  Level Minneapolis Center
01:47PM 41.8172 -96.3303 61° Northeast 481 554 39,000 -120 Level Minneapolis Center
01:48PM 41.8814 -96.1708 62° Northeast 481 554 38,800 -660 Descending Minneapolis Center
01:49PM 41.9450 -96.0100 62° Northeast 485 558 37,700 -900 Descending Minneapolis Center
01:50PM 42.0100 -95.8494 61° Northeast 486 559 37,000 -360 Descending Minneapolis Center
01:51PM 42.0728 -95.6883 62° Northeast 486 559 37,000 -420 Level Minneapolis Center
01:52PM 42.1492 -95.4961 62° Northeast 486 559 36,200 -900 Descending Minneapolis Center
01:53PM 42.2144 -95.3303 62° Northeast 496 571 35,200 -600 Descending Minneapolis Center
01:54PM 42.2797 -95.1611 62° Northeast 506 582 35,000 -120 Descending Minneapolis Center
01:55PM 42.3428 -95.0006 62° Northeast 489 563 35,000  Level Minneapolis Center
01:56PM 42.4033 -94.8436 62° Northeast 474 545 35,000  Level Minneapolis Center
01:57PM 42.4606 -94.6817 64° Northeast 476 548 35,000  Level Minneapolis Center
01:58PM 42.4822 -94.4850 81° East 470 541 35,000  Level Minneapolis Center
01:59PM 42.5019 -94.3108 81° East 473 544 35,000  Level Minneapolis Center
02:00PM 42.5278 -94.0997 81° East 477 549 35,000 -300 Level Minneapolis Center
02:01PM 42.5628 -93.9272 75° East 482 555 34,400 -780 Descending Minneapolis Center
02:02PM 42.6519 -93.7906 48° Northeast 485 558 33,400 -720 Descending Minneapolis Center
02:03PM 42.7722 -93.7153 25° Northeast 478 550 33,000 -240 Descending Minneapolis Center
02:04PM 42.9056 -93.6753 12° North 488 562 33,000  Level Minneapolis Center
02:05PM 43.0656 -93.6244 13° North 495 570 33,000  Level Minneapolis Center
02:06PM 43.1981 -93.5814 13° North 493 567 33,000 -180 Level Minneapolis Center
02:07PM 43.3300 -93.5481 10° North 490 564 32,700 -1,800 Descending Minneapolis Center
02:08PM 43.4606 -93.5375 North 478 550 29,400 -3,240 Descending Minneapolis Center
02:09PM 43.6000 -93.5228 North 477 549 26,100 -3,120 Descending Minneapolis Center
02:10PM 43.7258 -93.5103 North 463 533 23,000 -2,880 Descending Minneapolis Center
02:11PM 43.8456 -93.5003 North 440 506 20,200 -2,940 Descending Minneapolis Center
02:12PM 43.9797 -93.4875 North 408 470 17,000 -2,820 Descending Minneapolis Center
02:13PM 44.0831 -93.4789 North 379 436 14,400 -2,400 Descending Minneapolis Center
02:15PM 44.1828 -93.4692 North 360 414 12,000 -1,680 Descending Minneapolis Center
02:16PM 44.2761 -93.4303 17° North 357 411 11,000 -540 Descending Minneapolis Center
02:17PM 44.3681 -93.3675 26° Northeast 366 421 11,000  Level Minneapolis Center
02:18PM 44.4592 -93.3039 26° Northeast 367 422 11,000  Level Minneapolis Center
02:19PM 44.5658 -93.2289 27° Northeast 360 414 11,000 -120 Level Minneapolis Center
02:20PM 44.6564 -93.1997 13° North 344 396 10,800 -900 Descending Minneapolis Center
02:21PM 44.7422 -93.2522 337° Northwest 307 353 9,200 -1,380 Descending Minneapolis Center
02:22PM 44.8128 -93.2969 336° Northwest 291 335 8,000 -960 Descending Minneapolis Center
02:23PM 44.8583 -93.3800 308° West 272 313 7,300 -1,020 Descending Minneapolis Center
02:24PM 44.8983 -93.4714 302° West 271 312 6,000 -1,080 Descending Minneapolis Center
02:25PM 44.9492 -93.4939 343° North 223 257 5,100 -1,020 Descending Minneapolis Center
02:26PM 44.9494 -93.4247 90° East 175 201 3,900 -1,140 Descending Minneapolis Center
02:27PM 44.9386 -93.3506 102° East 164 189 2,800 -960 Descending Minneapolis Center
02:28PM 44.9161 -93.3000 122° Southeast 152 175 2,000 -780 Descending Minneapolis Center
02:29PM 44.8986 -93.2592 121° Southeast 125 144 1,300 -720 Descending Minneapolis Center
02:31PM 44.8820 -93.2218 71° East  Level Estimated
02:38PM 44.8820 -93.2218 71° East  Level Estimated